sensor_id;sensor_type;location;lat;lon;timestamp;temperature;humidity
42819;DHT22;30249;51.426;0.102;2022-07-06T00:02:11;17.40;82.20
42819;DHT22;30249;51.426;0.102;2022-07-06T00:04:41;17.30;81.80
42819;DHT22;30249;51.426;0.102;2022-07-06T00:07:09;17.30;82.80
42819;DHT22;30249;51.426;0.102;2022-07-06T00:09:38;17.20;82.50
42819;DHT22;30249;51.426;0.102;2022-07-06T00:12:06;17.10;83.30
42819;DHT22;30249;51.426;0.102;2022-07-06T00:14:35;17.10;82.90
42819;DHT22;30249;51.426;0.102;2022-07-06T00:17:05;17.10;83.50
42819;DHT22;30249;51.426;0.102;2022-07-06T00:19:36;17.20;83.10
42819;DHT22;30249;51.426;0.102;2022-07-06T00:22:09;17.00;83.80
42819;DHT22;30249;51.426;0.102;2022-07-06T00:24:37;17.00;82.90
42819;DHT22;30249;51.426;0.102;2022-07-06T00:27:06;17.00;83.60
42819;DHT22;30249;51.426;0.102;2022-07-06T00:29:35;16.90;83.30
42819;DHT22;30249;51.426;0.102;2022-07-06T00:32:03;16.90;83.00
42819;DHT22;30249;51.426;0.102;2022-07-06T00:34:32;16.80;84.30
42819;DHT22;30249;51.426;0.102;2022-07-06T00:37:00;16.50;83.20
42819;DHT22;30249;51.426;0.102;2022-07-06T00:39:28;16.80;84.60
42819;DHT22;30249;51.426;0.102;2022-07-06T00:41:57;16.70;83.70
42819;DHT22;30249;51.426;0.102;2022-07-06T00:44:27;17.20;85.20
42819;DHT22;30249;51.426;0.102;2022-07-06T00:46:56;16.70;85.20
42819;DHT22;30249;51.426;0.102;2022-07-06T00:49:24;16.90;85.20
42819;DHT22;30249;51.426;0.102;2022-07-06T00:52:11;16.60;84.90
42819;DHT22;30249;51.426;0.102;2022-07-06T00:54:40;16.50;85.70
42819;DHT22;30249;51.426;0.102;2022-07-06T00:57:09;16.50;84.50
42819;DHT22;30249;51.426;0.102;2022-07-06T00:59:37;17.10;85.10
42819;DHT22;30249;51.426;0.102;2022-07-06T01:02:06;17.40;86.20
42819;DHT22;30249;51.426;0.102;2022-07-06T01:04:35;16.40;85.40
42819;DHT22;30249;51.426;0.102;2022-07-06T01:07:03;16.30;86.00
42819;DHT22;30249;51.426;0.102;2022-07-06T01:09:31;16.30;85.80
42819;DHT22;30249;51.426;0.102;2022-07-06T01:11:59;16.30;85.70
42819;DHT22;30249;51.426;0.102;2022-07-06T01:14:29;16.20;86.60
42819;DHT22;30249;51.426;0.102;2022-07-06T01:16:58;16.20;86.10
42819;DHT22;30249;51.426;0.102;2022-07-06T01:19:25;16.20;86.00
42819;DHT22;30249;51.426;0.102;2022-07-06T01:21:53;16.20;85.80
42819;DHT22;30249;51.426;0.102;2022-07-06T01:24:21;16.10;86.50
42819;DHT22;30249;51.426;0.102;2022-07-06T01:26:49;16.10;86.60
42819;DHT22;30249;51.426;0.102;2022-07-06T01:29:17;14.80;85.30
42819;DHT22;30249;51.426;0.102;2022-07-06T01:31:47;16.00;86.50
42819;DHT22;30249;51.426;0.102;2022-07-06T01:34:18;16.10;86.60
42819;DHT22;30249;51.426;0.102;2022-07-06T01:36:46;15.90;86.30
42819;DHT22;30249;51.426;0.102;2022-07-06T01:39:14;15.90;86.50
42819;DHT22;30249;51.426;0.102;2022-07-06T01:41:42;15.90;86.90
42819;DHT22;30249;51.426;0.102;2022-07-06T01:44:13;15.80;86.90
42819;DHT22;30249;51.426;0.102;2022-07-06T01:46:41;15.80;86.80
42819;DHT22;30249;51.426;0.102;2022-07-06T01:49:09;15.80;87.20
42819;DHT22;30249;51.426;0.102;2022-07-06T01:51:43;14.60;86.70
42819;DHT22;30249;51.426;0.102;2022-07-06T01:54:11;15.70;87.80
42819;DHT22;30249;51.426;0.102;2022-07-06T01:56:40;15.70;87.90
42819;DHT22;30249;51.426;0.102;2022-07-06T01:59:07;15.60;87.50
42819;DHT22;30249;51.426;0.102;2022-07-06T02:01:37;15.60;87.40
42819;DHT22;30249;51.426;0.102;2022-07-06T02:04:05;15.60;88.00
42819;DHT22;30249;51.426;0.102;2022-07-06T02:06:34;14.60;87.50
42819;DHT22;30249;51.426;0.102;2022-07-06T02:09:02;15.50;87.90
42819;DHT22;30249;51.426;0.102;2022-07-06T02:11:30;15.50;88.20
42819;DHT22;30249;51.426;0.102;2022-07-06T02:13:57;15.50;88.90
42819;DHT22;30249;51.426;0.102;2022-07-06T02:16:25;15.40;87.80
42819;DHT22;30249;51.426;0.102;2022-07-06T02:18:53;15.40;88.60
42819;DHT22;30249;51.426;0.102;2022-07-06T02:21:23;15.30;88.90
42819;DHT22;30249;51.426;0.102;2022-07-06T02:23:51;15.40;88.70
42819;DHT22;30249;51.426;0.102;2022-07-06T02:26:18;15.30;88.90
42819;DHT22;30249;51.426;0.102;2022-07-06T02:28:47;15.20;88.50
42819;DHT22;30249;51.426;0.102;2022-07-06T02:31:15;15.30;88.90
42819;DHT22;30249;51.426;0.102;2022-07-06T02:33:46;15.90;89.20
42819;DHT22;30249;51.426;0.102;2022-07-06T02:36:14;15.20;89.30
42819;DHT22;30249;51.426;0.102;2022-07-06T02:38:43;15.20;89.20
42819;DHT22;30249;51.426;0.102;2022-07-06T02:41:11;15.20;89.80
42819;DHT22;30249;51.426;0.102;2022-07-06T02:43:38;15.20;89.30
42819;DHT22;30249;51.426;0.102;2022-07-06T02:46:06;15.10;89.50
42819;DHT22;30249;51.426;0.102;2022-07-06T02:48:35;15.10;90.00
42819;DHT22;30249;51.426;0.102;2022-07-06T02:51:03;15.10;90.10
42819;DHT22;30249;51.426;0.102;2022-07-06T02:53:30;15.10;90.20
42819;DHT22;30249;51.426;0.102;2022-07-06T02:55:58;15.10;90.20
42819;DHT22;30249;51.426;0.102;2022-07-06T02:58:26;15.10;90.20
42819;DHT22;30249;51.426;0.102;2022-07-06T03:00:53;15.10;90.00
42819;DHT22;30249;51.426;0.102;2022-07-06T03:03:22;15.10;90.00
42819;DHT22;30249;51.426;0.102;2022-07-06T03:05:50;15.10;90.00
42819;DHT22;30249;51.426;0.102;2022-07-06T03:08:19;15.10;90.10
42819;DHT22;30249;51.426;0.102;2022-07-06T03:10:48;15.10;90.10
42819;DHT22;30249;51.426;0.102;2022-07-06T03:13:16;15.10;90.50
42819;DHT22;30249;51.426;0.102;2022-07-06T03:15:45;15.10;90.20
42819;DHT22;30249;51.426;0.102;2022-07-06T03:18:14;15.00;90.20
42819;DHT22;30249;51.426;0.102;2022-07-06T03:20:43;15.10;90.30
42819;DHT22;30249;51.426;0.102;2022-07-06T03:23:13;15.10;90.50
42819;DHT22;30249;51.426;0.102;2022-07-06T03:25:41;15.00;90.50
42819;DHT22;30249;51.426;0.102;2022-07-06T03:28:10;15.00;90.50
42819;DHT22;30249;51.426;0.102;2022-07-06T03:30:37;15.00;90.60
42819;DHT22;30249;51.426;0.102;2022-07-06T03:33:05;15.00;90.70
42819;DHT22;30249;51.426;0.102;2022-07-06T03:35:33;15.00;90.70
42819;DHT22;30249;51.426;0.102;2022-07-06T03:38:03;15.00;90.60
42819;DHT22;30249;51.426;0.102;2022-07-06T03:40:32;15.00;90.70
42819;DHT22;30249;51.426;0.102;2022-07-06T03:43:00;14.90;90.50
42819;DHT22;30249;51.426;0.102;2022-07-06T03:45:33;14.90;90.90
42819;DHT22;30249;51.426;0.102;2022-07-06T03:48:04;14.90;90.70
42819;DHT22;30249;51.426;0.102;2022-07-06T03:50:41;15.00;90.80
42819;DHT22;30249;51.426;0.102;2022-07-06T03:53:14;15.80;91.20
42819;DHT22;30249;51.426;0.102;2022-07-06T03:55:42;14.90;90.90
42819;DHT22;30249;51.426;0.102;2022-07-06T03:58:13;14.80;90.80
42819;DHT22;30249;51.426;0.102;2022-07-06T04:00:41;14.80;90.90
42819;DHT22;30249;51.426;0.102;2022-07-06T04:03:16;14.80;90.80
42819;DHT22;30249;51.426;0.102;2022-07-06T04:05:48;14.80;91.10
42819;DHT22;30249;51.426;0.102;2022-07-06T04:08:16;14.80;91.30
42819;DHT22;30249;51.426;0.102;2022-07-06T04:10:52;14.70;91.20
42819;DHT22;30249;51.426;0.102;2022-07-06T04:13:21;14.70;91.30
42819;DHT22;30249;51.426;0.102;2022-07-06T04:15:49;14.80;91.50
42819;DHT22;30249;51.426;0.102;2022-07-06T04:18:18;14.80;91.40
42819;DHT22;30249;51.426;0.102;2022-07-06T04:20:53;14.80;91.60
42819;DHT22;30249;51.426;0.102;2022-07-06T04:23:20;14.80;91.60
42819;DHT22;30249;51.426;0.102;2022-07-06T04:25:50;14.90;91.40
42819;DHT22;30249;51.426;0.102;2022-07-06T04:28:19;14.90;91.70
42819;DHT22;30249;51.426;0.102;2022-07-06T04:30:47;14.90;91.40
42819;DHT22;30249;51.426;0.102;2022-07-06T04:33:18;14.90;91.30
42819;DHT22;30249;51.426;0.102;2022-07-06T04:35:48;15.00;91.50
42819;DHT22;30249;51.426;0.102;2022-07-06T04:38:19;15.10;91.30
42819;DHT22;30249;51.426;0.102;2022-07-06T04:40:48;15.20;91.30
42819;DHT22;30249;51.426;0.102;2022-07-06T04:43:18;15.20;91.40
42819;DHT22;30249;51.426;0.102;2022-07-06T04:45:47;15.30;91.20
42819;DHT22;30249;51.426;0.102;2022-07-06T04:48:15;15.40;91.40
42819;DHT22;30249;51.426;0.102;2022-07-06T04:50:43;15.50;91.20
42819;DHT22;30249;51.426;0.102;2022-07-06T04:53:17;15.60;91.00
42819;DHT22;30249;51.426;0.102;2022-07-06T04:55:44;15.60;90.90
42819;DHT22;30249;51.426;0.102;2022-07-06T04:58:13;15.70;90.90
42819;DHT22;30249;51.426;0.102;2022-07-06T05:00:42;15.70;90.70
42819;DHT22;30249;51.426;0.102;2022-07-06T05:03:10;15.80;91.10
42819;DHT22;30249;51.426;0.102;2022-07-06T05:05:41;16.00;90.80
42819;DHT22;30249;51.426;0.102;2022-07-06T05:08:10;16.00;90.70
42819;DHT22;30249;51.426;0.102;2022-07-06T05:10:40;16.00;90.60
42819;DHT22;30249;51.426;0.102;2022-07-06T05:13:08;16.10;90.50
42819;DHT22;30249;51.426;0.102;2022-07-06T05:15:39;16.20;90.50
42819;DHT22;30249;51.426;0.102;2022-07-06T05:18:08;16.20;90.80
42819;DHT22;30249;51.426;0.102;2022-07-06T05:20:39;15.50;90.50
42819;DHT22;30249;51.426;0.102;2022-07-06T05:23:10;16.20;90.50
42819;DHT22;30249;51.426;0.102;2022-07-06T05:25:43;16.00;90.50
42819;DHT22;30249;51.426;0.102;2022-07-06T05:28:11;16.20;90.50
42819;DHT22;30249;51.426;0.102;2022-07-06T05:30:41;16.20;90.60
42819;DHT22;30249;51.426;0.102;2022-07-06T05:33:10;16.30;90.50
42819;DHT22;30249;51.426;0.102;2022-07-06T05:35:37;16.30;90.50
42819;DHT22;30249;51.426;0.102;2022-07-06T05:38:23;16.30;90.50
42819;DHT22;30249;51.426;0.102;2022-07-06T05:40:52;16.40;90.50
42819;DHT22;30249;51.426;0.102;2022-07-06T05:43:19;16.40;90.50
42819;DHT22;30249;51.426;0.102;2022-07-06T05:45:54;16.50;90.50
42819;DHT22;30249;51.426;0.102;2022-07-06T05:48:24;16.60;90.40
42819;DHT22;30249;51.426;0.102;2022-07-06T05:51:15;16.60;90.40
42819;DHT22;30249;51.426;0.102;2022-07-06T05:53:44;16.50;90.20
42819;DHT22;30249;51.426;0.102;2022-07-06T05:56:11;17.80;90.50
42819;DHT22;30249;51.426;0.102;2022-07-06T05:58:41;16.80;90.30
42819;DHT22;30249;51.426;0.102;2022-07-06T06:01:08;16.80;90.30
42819;DHT22;30249;51.426;0.102;2022-07-06T06:03:38;16.90;90.20
42819;DHT22;30249;51.426;0.102;2022-07-06T06:06:08;17.00;90.30
42819;DHT22;30249;51.426;0.102;2022-07-06T06:08:36;16.90;90.30
42819;DHT22;30249;51.426;0.102;2022-07-06T06:11:04;17.10;90.20
42819;DHT22;30249;51.426;0.102;2022-07-06T06:13:38;16.90;90.10
42819;DHT22;30249;51.426;0.102;2022-07-06T06:16:06;17.00;90.40
42819;DHT22;30249;51.426;0.102;2022-07-06T06:18:34;17.10;90.10
42819;DHT22;30249;51.426;0.102;2022-07-06T06:21:08;17.20;90.30
42819;DHT22;30249;51.426;0.102;2022-07-06T06:23:36;17.30;90.10
42819;DHT22;30249;51.426;0.102;2022-07-06T06:26:04;17.30;90.10
42819;DHT22;30249;51.426;0.102;2022-07-06T06:28:34;17.30;90.00
42819;DHT22;30249;51.426;0.102;2022-07-06T06:31:05;17.40;89.90
42819;DHT22;30249;51.426;0.102;2022-07-06T06:33:34;17.40;90.00
42819;DHT22;30249;51.426;0.102;2022-07-06T06:36:01;17.30;89.90
42819;DHT22;30249;51.426;0.102;2022-07-06T06:38:30;17.30;90.00
42819;DHT22;30249;51.426;0.102;2022-07-06T06:40:59;17.30;90.10
42819;DHT22;30249;51.426;0.102;2022-07-06T06:43:30;17.40;90.10
42819;DHT22;30249;51.426;0.102;2022-07-06T06:46:21;17.40;90.10
42819;DHT22;30249;51.426;0.102;2022-07-06T06:48:50;17.60;90.00
42819;DHT22;30249;51.426;0.102;2022-07-06T06:51:20;17.60;89.70
42819;DHT22;30249;51.426;0.102;2022-07-06T06:53:48;17.60;89.60
42819;DHT22;30249;51.426;0.102;2022-07-06T06:56:16;17.70;89.70
42819;DHT22;30249;51.426;0.102;2022-07-06T06:58:45;17.70;90.00
42819;DHT22;30249;51.426;0.102;2022-07-06T07:01:32;17.70;90.00
42819;DHT22;30249;51.426;0.102;2022-07-06T07:04:00;17.80;90.00
42819;DHT22;30249;51.426;0.102;2022-07-06T07:06:29;17.80;90.00
42819;DHT22;30249;51.426;0.102;2022-07-06T07:09:00;17.90;90.00
42819;DHT22;30249;51.426;0.102;2022-07-06T07:11:30;17.90;90.10
42819;DHT22;30249;51.426;0.102;2022-07-06T07:14:01;18.00;90.00
42819;DHT22;30249;51.426;0.102;2022-07-06T07:16:32;17.80;90.00
42819;DHT22;30249;51.426;0.102;2022-07-06T07:19:09;17.20;89.30
42819;DHT22;30249;51.426;0.102;2022-07-06T07:21:42;18.00;89.90
42819;DHT22;30249;51.426;0.102;2022-07-06T07:24:14;18.20;90.10
42819;DHT22;30249;51.426;0.102;2022-07-06T07:26:56;19.60;90.10
42819;DHT22;30249;51.426;0.102;2022-07-06T07:29:24;18.30;89.70
42819;DHT22;30249;51.426;0.102;2022-07-06T07:31:51;18.40;89.10
42819;DHT22;30249;51.426;0.102;2022-07-06T07:34:19;18.50;89.00
42819;DHT22;30249;51.426;0.102;2022-07-06T07:36:47;18.50;88.70
42819;DHT22;30249;51.426;0.102;2022-07-06T07:39:15;18.60;89.00
42819;DHT22;30249;51.426;0.102;2022-07-06T07:41:44;18.60;88.80
42819;DHT22;30249;51.426;0.102;2022-07-06T07:44:16;18.60;89.20
42819;DHT22;30249;51.426;0.102;2022-07-06T07:46:47;18.50;88.90
42819;DHT22;30249;51.426;0.102;2022-07-06T07:49:16;18.50;89.40
42819;DHT22;30249;51.426;0.102;2022-07-06T07:51:50;18.60;89.50
42819;DHT22;30249;51.426;0.102;2022-07-06T07:54:19;18.80;89.50
42819;DHT22;30249;51.426;0.102;2022-07-06T07:56:50;18.80;89.50
42819;DHT22;30249;51.426;0.102;2022-07-06T07:59:25;18.90;89.60
42819;DHT22;30249;51.426;0.102;2022-07-06T08:01:58;19.00;89.40
42819;DHT22;30249;51.426;0.102;2022-07-06T08:04:26;18.90;89.20
42819;DHT22;30249;51.426;0.102;2022-07-06T08:06:54;19.10;89.60
42819;DHT22;30249;51.426;0.102;2022-07-06T08:09:29;19.20;90.00
42819;DHT22;30249;51.426;0.102;2022-07-06T08:11:59;19.20;89.40
42819;DHT22;30249;51.426;0.102;2022-07-06T08:14:27;19.40;89.70
42819;DHT22;30249;51.426;0.102;2022-07-06T08:16:55;19.30;89.70
42819;DHT22;30249;51.426;0.102;2022-07-06T08:19:23;19.30;89.40
42819;DHT22;30249;51.426;0.102;2022-07-06T08:21:52;19.30;89.60
42819;DHT22;30249;51.426;0.102;2022-07-06T08:24:23;19.40;89.60
42819;DHT22;30249;51.426;0.102;2022-07-06T08:26:55;19.50;90.30
42819;DHT22;30249;51.426;0.102;2022-07-06T08:29:25;19.50;89.60
42819;DHT22;30249;51.426;0.102;2022-07-06T08:31:55;19.50;90.10
42819;DHT22;30249;51.426;0.102;2022-07-06T08:34:34;19.70;90.10
42819;DHT22;30249;51.426;0.102;2022-07-06T08:37:05;19.20;90.00
42819;DHT22;30249;51.426;0.102;2022-07-06T08:39:32;20.00;90.10
42819;DHT22;30249;51.426;0.102;2022-07-06T08:42:00;20.10;90.00
42819;DHT22;30249;51.426;0.102;2022-07-06T08:44:29;20.70;90.00
42819;DHT22;30249;51.426;0.102;2022-07-06T08:46:57;20.20;89.70
42819;DHT22;30249;51.426;0.102;2022-07-06T08:49:26;20.20;89.80
42819;DHT22;30249;51.426;0.102;2022-07-06T08:51:54;20.30;90.00
42819;DHT22;30249;51.426;0.102;2022-07-06T08:54:23;20.30;90.00
42819;DHT22;30249;51.426;0.102;2022-07-06T08:56:54;20.50;90.20
42819;DHT22;30249;51.426;0.102;2022-07-06T08:59:24;20.50;90.30
42819;DHT22;30249;51.426;0.102;2022-07-06T09:01:52;20.50;90.30
42819;DHT22;30249;51.426;0.102;2022-07-06T09:04:21;20.50;90.30
42819;DHT22;30249;51.426;0.102;2022-07-06T09:06:51;20.60;90.40
42819;DHT22;30249;51.426;0.102;2022-07-06T09:09:23;21.20;90.50
42819;DHT22;30249;51.426;0.102;2022-07-06T09:11:52;20.40;90.30
42819;DHT22;30249;51.426;0.102;2022-07-06T09:14:20;20.80;90.40
42819;DHT22;30249;51.426;0.102;2022-07-06T09:17:07;21.00;90.50
42819;DHT22;30249;51.426;0.102;2022-07-06T09:19:46;21.10;90.20
42819;DHT22;30249;51.426;0.102;2022-07-06T09:22:24;21.30;90.20
42819;DHT22;30249;51.426;0.102;2022-07-06T09:25:18;21.50;90.10
42819;DHT22;30249;51.426;0.102;2022-07-06T09:27:47;21.40;90.00
42819;DHT22;30249;51.426;0.102;2022-07-06T09:30:35;21.40;90.10
42819;DHT22;30249;51.426;0.102;2022-07-06T09:33:20;21.30;90.20
42819;DHT22;30249;51.426;0.102;2022-07-06T09:36:05;21.40;90.30
42819;DHT22;30249;51.426;0.102;2022-07-06T09:38:37;21.40;90.40
42819;DHT22;30249;51.426;0.102;2022-07-06T09:41:11;21.50;90.50
42819;DHT22;30249;51.426;0.102;2022-07-06T09:43:48;21.40;90.30
42819;DHT22;30249;51.426;0.102;2022-07-06T09:46:27;21.40;90.40
42819;DHT22;30249;51.426;0.102;2022-07-06T09:52:21;21.60;90.20
42819;DHT22;30249;51.426;0.102;2022-07-06T09:54:59;21.90;90.50
42819;DHT22;30249;51.426;0.102;2022-07-06T09:57:59;21.70;89.70
42819;DHT22;30249;51.426;0.102;2022-07-06T10:00:35;21.70;90.10
42819;DHT22;30249;51.426;0.102;2022-07-06T10:03:24;21.70;90.00
42819;DHT22;30249;51.426;0.102;2022-07-06T10:05:56;23.40;90.30
42819;DHT22;30249;51.426;0.102;2022-07-06T10:08:30;21.90;90.00
42819;DHT22;30249;51.426;0.102;2022-07-06T10:11:00;22.00;89.60
42819;DHT22;30249;51.426;0.102;2022-07-06T10:13:36;22.20;89.50
42819;DHT22;30249;51.426;0.102;2022-07-06T10:16:25;22.10;89.10
42819;DHT22;30249;51.426;0.102;2022-07-06T10:18:56;22.20;89.20
42819;DHT22;30249;51.426;0.102;2022-07-06T10:21:46;22.30;88.70
42819;DHT22;30249;51.426;0.102;2022-07-06T10:24:21;23.00;88.80
42819;DHT22;30249;51.426;0.102;2022-07-06T10:26:50;22.60;88.20
42819;DHT22;30249;51.426;0.102;2022-07-06T10:29:24;22.60;87.70
42819;DHT22;30249;51.426;0.102;2022-07-06T10:32:04;21.50;87.40
42819;DHT22;30249;51.426;0.102;2022-07-06T10:34:53;22.80;87.80
42819;DHT22;30249;51.426;0.102;2022-07-06T10:37:43;22.80;87.40
42819;DHT22;30249;51.426;0.102;2022-07-06T10:40:39;22.50;87.10
42819;DHT22;30249;51.426;0.102;2022-07-06T10:46:58;23.00;86.60
42819;DHT22;30249;51.426;0.102;2022-07-06T10:49:38;23.10;86.40
42819;DHT22;30249;51.426;0.102;2022-07-06T10:52:47;23.10;86.50
42819;DHT22;30249;51.426;0.102;2022-07-06T10:55:39;23.30;86.90
42819;DHT22;30249;51.426;0.102;2022-07-06T10:58:35;23.30;86.30
42819;DHT22;30249;51.426;0.102;2022-07-06T11:04:55;23.20;86.10
42819;DHT22;30249;51.426;0.102;2022-07-06T11:07:51;23.30;85.90
42819;DHT22;30249;51.426;0.102;2022-07-06T11:10:48;23.40;85.70
42819;DHT22;30249;51.426;0.102;2022-07-06T11:13:54;23.60;85.40
42819;DHT22;30249;51.426;0.102;2022-07-06T11:16:30;23.80;85.00
42819;DHT22;30249;51.426;0.102;2022-07-06T11:19:27;23.80;84.30
42819;DHT22;30249;51.426;0.102;2022-07-06T11:22:15;23.90;84.20
42819;DHT22;30249;51.426;0.102;2022-07-06T11:25:11;24.10;83.80
42819;DHT22;30249;51.426;0.102;2022-07-06T11:28:13;23.10;83.50
42819;DHT22;30249;51.426;0.102;2022-07-06T11:31:38;24.20;84.00
42819;DHT22;30249;51.426;0.102;2022-07-06T11:37:15;24.50;83.10
42819;DHT22;30249;51.426;0.102;2022-07-06T11:39:48;25.80;83.80
42819;DHT22;30249;51.426;0.102;2022-07-06T11:42:27;24.40;83.30
42819;DHT22;30249;51.426;0.102;2022-07-06T11:48:11;24.50;83.30
42819;DHT22;30249;51.426;0.102;2022-07-06T11:50:42;24.60;83.60
42819;DHT22;30249;51.426;0.102;2022-07-06T11:53:16;24.40;83.40
42819;DHT22;30249;51.426;0.102;2022-07-06T11:56:03;24.40;82.80
42819;DHT22;30249;51.426;0.102;2022-07-06T11:58:41;24.50;82.80
42819;DHT22;30249;51.426;0.102;2022-07-06T12:01:34;24.30;82.50
42819;DHT22;30249;51.426;0.102;2022-07-06T12:04:10;24.60;83.20
42819;DHT22;30249;51.426;0.102;2022-07-06T12:10:00;24.50;81.90
42819;DHT22;30249;51.426;0.102;2022-07-06T12:12:36;23.90;82.10
42819;DHT22;30249;51.426;0.102;2022-07-06T12:15:09;24.40;82.50
42819;DHT22;30249;51.426;0.102;2022-07-06T12:17:47;24.30;82.50
42819;DHT22;30249;51.426;0.102;2022-07-06T12:20:32;24.30;82.30
42819;DHT22;30249;51.426;0.102;2022-07-06T12:23:22;24.30;82.30
42819;DHT22;30249;51.426;0.102;2022-07-06T12:26:09;24.20;82.70
42819;DHT22;30249;51.426;0.102;2022-07-06T12:29:04;24.30;83.80
42819;DHT22;30249;51.426;0.102;2022-07-06T12:34:20;24.00;84.30
42819;DHT22;30249;51.426;0.102;2022-07-06T12:36:49;24.00;82.60
42819;DHT22;30249;51.426;0.102;2022-07-06T12:39:18;23.90;82.50
42819;DHT22;30249;51.426;0.102;2022-07-06T12:41:53;23.90;82.80
42819;DHT22;30249;51.426;0.102;2022-07-06T12:44:24;23.90;82.20
42819;DHT22;30249;51.426;0.102;2022-07-06T12:47:05;23.90;83.10
42819;DHT22;30249;51.426;0.102;2022-07-06T12:49:48;24.10;81.60
42819;DHT22;30249;51.426;0.102;2022-07-06T12:52:17;24.20;81.60
42819;DHT22;30249;51.426;0.102;2022-07-06T12:54:49;24.40;81.40
42819;DHT22;30249;51.426;0.102;2022-07-06T12:57:23;24.00;81.60
42819;DHT22;30249;51.426;0.102;2022-07-06T13:02:25;24.60;81.80
42819;DHT22;30249;51.426;0.102;2022-07-06T13:05:13;24.60;81.20
42819;DHT22;30249;51.426;0.102;2022-07-06T13:07:44;24.80;81.10
42819;DHT22;30249;51.426;0.102;2022-07-06T13:10:12;24.80;80.70
42819;DHT22;30249;51.426;0.102;2022-07-06T13:12:41;25.00;80.80
42819;DHT22;30249;51.426;0.102;2022-07-06T13:15:10;25.10;80.90
42819;DHT22;30249;51.426;0.102;2022-07-06T13:17:39;25.20;80.40
42819;DHT22;30249;51.426;0.102;2022-07-06T13:20:08;25.20;80.20
42819;DHT22;30249;51.426;0.102;2022-07-06T13:22:38;25.30;79.70
42819;DHT22;30249;51.426;0.102;2022-07-06T13:25:07;25.30;79.10
42819;DHT22;30249;51.426;0.102;2022-07-06T13:27:35;25.40;79.10
42819;DHT22;30249;51.426;0.102;2022-07-06T13:30:04;25.40;79.40
42819;DHT22;30249;51.426;0.102;2022-07-06T13:32:36;25.10;78.50
42819;DHT22;30249;51.426;0.102;2022-07-06T13:35:08;24.50;78.60
42819;DHT22;30249;51.426;0.102;2022-07-06T13:37:37;25.10;79.30
42819;DHT22;30249;51.426;0.102;2022-07-06T13:40:05;25.00;79.50
42819;DHT22;30249;51.426;0.102;2022-07-06T13:42:33;24.90;79.60
42819;DHT22;30249;51.426;0.102;2022-07-06T13:45:03;24.80;80.00
42819;DHT22;30249;51.426;0.102;2022-07-06T13:47:32;24.70;79.80
42819;DHT22;30249;51.426;0.102;2022-07-06T13:50:01;24.70;80.00
42819;DHT22;30249;51.426;0.102;2022-07-06T13:52:33;25.10;81.50
42819;DHT22;30249;51.426;0.102;2022-07-06T13:55:04;24.40;80.40
42819;DHT22;30249;51.426;0.102;2022-07-06T13:57:35;24.10;80.70
42819;DHT22;30249;51.426;0.102;2022-07-06T14:00:08;24.10;81.00
42819;DHT22;30249;51.426;0.102;2022-07-06T14:02:37;23.90;81.40
42819;DHT22;30249;51.426;0.102;2022-07-06T14:05:06;23.90;81.40
42819;DHT22;30249;51.426;0.102;2022-07-06T14:07:35;24.10;81.10
42819;DHT22;30249;51.426;0.102;2022-07-06T14:10:08;24.20;81.50
42819;DHT22;30249;51.426;0.102;2022-07-06T14:12:39;24.80;81.40
42819;DHT22;30249;51.426;0.102;2022-07-06T14:15:11;24.80;81.40
42819;DHT22;30249;51.426;0.102;2022-07-06T14:17:43;24.40;80.80
42819;DHT22;30249;51.426;0.102;2022-07-06T14:20:11;24.50;80.70
42819;DHT22;30249;51.426;0.102;2022-07-06T14:22:41;24.10;81.00
42819;DHT22;30249;51.426;0.102;2022-07-06T14:25:11;24.50;80.40
42819;DHT22;30249;51.426;0.102;2022-07-06T14:27:39;24.60;80.70
42819;DHT22;30249;51.426;0.102;2022-07-06T14:30:09;25.00;81.00
42819;DHT22;30249;51.426;0.102;2022-07-06T14:32:37;24.40;79.70
42819;DHT22;30249;51.426;0.102;2022-07-06T14:35:08;25.00;80.50
42819;DHT22;30249;51.426;0.102;2022-07-06T14:37:38;24.90;79.90
42819;DHT22;30249;51.426;0.102;2022-07-06T14:40:06;24.80;80.40
42819;DHT22;30249;51.426;0.102;2022-07-06T14:42:34;23.40;79.60
42819;DHT22;30249;51.426;0.102;2022-07-06T14:45:02;24.80;81.00
42819;DHT22;30249;51.426;0.102;2022-07-06T14:47:33;24.20;80.60
42819;DHT22;30249;51.426;0.102;2022-07-06T14:50:11;24.80;80.40
42819;DHT22;30249;51.426;0.102;2022-07-06T14:52:41;26.50;81.40
42819;DHT22;30249;51.426;0.102;2022-07-06T14:55:12;24.70;80.20
42819;DHT22;30249;51.426;0.102;2022-07-06T14:57:43;24.60;80.70
42819;DHT22;30249;51.426;0.102;2022-07-06T15:00:14;24.60;80.80
42819;DHT22;30249;51.426;0.102;2022-07-06T15:02:44;24.50;81.10
42819;DHT22;30249;51.426;0.102;2022-07-06T15:05:13;24.50;81.00
42819;DHT22;30249;51.426;0.102;2022-07-06T15:07:41;24.20;80.50
42819;DHT22;30249;51.426;0.102;2022-07-06T15:10:09;25.10;80.70
42819;DHT22;30249;51.426;0.102;2022-07-06T15:12:44;26.20;79.10
42819;DHT22;30249;51.426;0.102;2022-07-06T15:15:18;26.30;77.50
42819;DHT22;30249;51.426;0.102;2022-07-06T15:18:07;26.20;76.80
42819;DHT22;30249;51.426;0.102;2022-07-06T15:20:37;26.10;77.70
42819;DHT22;30249;51.426;0.102;2022-07-06T15:23:06;25.90;77.10
42819;DHT22;30249;51.426;0.102;2022-07-06T15:25:35;26.00;77.50
42819;DHT22;30249;51.426;0.102;2022-07-06T15:28:03;26.10;76.70
42819;DHT22;30249;51.426;0.102;2022-07-06T15:30:33;25.90;77.40
42819;DHT22;30249;51.426;0.102;2022-07-06T15:33:01;25.70;77.30
42819;DHT22;30249;51.426;0.102;2022-07-06T15:35:29;25.60;77.50
42819;DHT22;30249;51.426;0.102;2022-07-06T15:37:58;25.60;78.90
42819;DHT22;30249;51.426;0.102;2022-07-06T15:40:29;25.40;77.50
42819;DHT22;30249;51.426;0.102;2022-07-06T15:43:03;25.50;78.00
42819;DHT22;30249;51.426;0.102;2022-07-06T15:45:32;26.50;77.60
42819;DHT22;30249;51.426;0.102;2022-07-06T15:48:09;25.60;77.20
42819;DHT22;30249;51.426;0.102;2022-07-06T15:50:43;24.00;75.70
42819;DHT22;30249;51.426;0.102;2022-07-06T15:53:13;25.60;77.00
42819;DHT22;30249;51.426;0.102;2022-07-06T15:55:45;25.20;77.60
42819;DHT22;30249;51.426;0.102;2022-07-06T15:58:22;25.00;77.40
42819;DHT22;30249;51.426;0.102;2022-07-06T16:00:53;25.00;77.90
42819;DHT22;30249;51.426;0.102;2022-07-06T16:03:21;24.80;77.80
42819;DHT22;30249;51.426;0.102;2022-07-06T16:05:54;24.70;78.60
42819;DHT22;30249;51.426;0.102;2022-07-06T16:08:39;24.60;78.30
42819;DHT22;30249;51.426;0.102;2022-07-06T16:11:13;24.60;78.90
42819;DHT22;30249;51.426;0.102;2022-07-06T16:13:45;24.50;79.10
42819;DHT22;30249;51.426;0.102;2022-07-06T16:16:23;24.50;79.30
42819;DHT22;30249;51.426;0.102;2022-07-06T16:18:51;24.60;79.00
42819;DHT22;30249;51.426;0.102;2022-07-06T16:21:20;24.60;79.40
42819;DHT22;30249;51.426;0.102;2022-07-06T16:23:49;24.60;78.90
42819;DHT22;30249;51.426;0.102;2022-07-06T16:26:20;25.00;79.40
42819;DHT22;30249;51.426;0.102;2022-07-06T16:28:49;24.60;79.10